createdAt,value
2019-05-05T00:00:14.360Z,81.76
2019-05-05T00:01:14.694Z,82.18
2019-05-05T00:02:14.435Z,82.63
2019-05-05T00:03:14.729Z,82.53
2019-05-05T00:04:14.893Z,82.63
2019-05-05T00:05:14.961Z,81.76
2019-05-05T00:06:14.705Z,81.59
2019-05-05T00:07:14.884Z,81.59
2019-05-05T00:08:15.201Z,81.59
2019-05-05T00:09:14.628Z,81.90
2019-05-05T00:10:15.141Z,82.11
2019-05-05T00:11:15.257Z,82.32
2019-05-05T00:12:14.705Z,81.80
2019-05-05T00:13:14.914Z,82.11
2019-05-05T00:14:15.126Z,82.32
2019-05-05T00:15:14.589Z,82.04
2019-05-05T00:16:15.069Z,82.32
2019-05-05T00:17:14.460Z,82.84
2019-05-05T00:18:14.820Z,82.73
2019-05-05T00:19:16.302Z,82.87
2019-05-05T00:20:14.489Z,82.87
2019-05-05T00:21:15.023Z,82.87
2019-05-05T00:22:15.074Z,82.98
2019-05-05T00:23:14.580Z,83.04
2019-05-05T00:24:15.046Z,84.39
2019-05-05T00:25:14.314Z,83.56
2019-05-05T00:26:14.698Z,83.87
2019-05-05T00:27:14.833Z,83.87
2019-05-05T00:28:14.297Z,84.19
2019-05-05T00:29:14.724Z,83.36
2019-05-05T00:30:14.374Z,83.36
2019-05-05T00:31:14.851Z,83.15
2019-05-05T00:32:15.097Z,82.84
2019-05-05T00:33:14.513Z,82.63
2019-05-05T00:34:12.841Z,83.01
2019-05-05T00:35:14.681Z,82.53
2019-05-05T00:36:14.587Z,82.70
2019-05-05T00:37:14.959Z,82.49
2019-05-05T00:38:14.303Z,82.70
2019-05-05T00:39:14.808Z,82.39
2019-05-05T00:40:14.191Z,81.87
2019-05-05T00:41:14.683Z,81.62
2019-05-05T00:42:12.770Z,80.58
2019-05-05T00:43:14.685Z,80.89
2019-05-05T00:44:12.720Z,80.58
2019-05-05T00:45:14.654Z,81.10
2019-05-05T00:46:12.701Z,80.47
2019-05-05T00:47:14.563Z,80.58
2019-05-05T00:48:12.700Z,80.27
2019-05-05T00:49:14.539Z,80.06
2019-05-05T00:50:14.494Z,80.99
2019-05-05T00:51:14.969Z,80.68
2019-05-05T00:52:14.291Z,80.58
2019-05-05T00:53:14.539Z,79.75
2019-05-05T00:54:14.745Z,80.54
2019-05-05T00:55:12.610Z,80.68
2019-05-05T00:56:14.439Z,80.37
2019-05-05T00:57:14.856Z,80.16
2019-05-05T00:58:14.338Z,80.02
2019-05-05T00:59:14.549Z,80.06
2019-05-05T01:00:12.543Z,78.99
2019-05-05T01:01:14.399Z,78.89
2019-05-05T01:02:12.540Z,80.13
2019-05-05T01:03:12.527Z,79.61
2019-05-05T01:04:14.443Z,80.13
2019-05-05T01:05:12.494Z,80.16
2019-05-05T01:06:12.486Z,80.47
2019-05-05T01:07:14.272Z,79.92
2019-05-05T01:08:13.975Z,79.85
2019-05-05T01:09:12.444Z,79.10
2019-05-05T01:10:14.279Z,78.99
2019-05-05T01:11:14.338Z,79.61
2019-05-05T01:12:12.411Z,79.61
2019-05-05T01:13:12.415Z,79.10
2019-05-05T01:14:14.339Z,79.34
2019-05-05T01:15:12.382Z,79.10
2019-05-05T01:16:12.378Z,79.20
2019-05-05T01:17:14.564Z,79.10
2019-05-05T01:18:12.361Z,79.24
2019-05-05T01:19:12.337Z,79.55
2019-05-05T01:20:14.530Z,79.65
2019-05-05T01:21:12.335Z,79.61
2019-05-05T01:22:14.250Z,79.13
2019-05-05T01:23:12.316Z,79.71
2019-05-05T01:24:14.282Z,80.06
2019-05-05T01:25:12.283Z,80.27
2019-05-05T01:26:14.254Z,80.13
2019-05-05T01:27:12.254Z,79.82
2019-05-05T01:28:14.237Z,80.06
2019-05-05T01:29:12.244Z,79.55
2019-05-05T01:30:12.222Z,79.65
2019-05-05T01:31:12.212Z,80.16
2019-05-05T01:32:12.200Z,80.23
2019-05-05T01:33:12.210Z,80.37
2019-05-05T01:34:12.178Z,80.37
2019-05-05T01:35:14.309Z,80.37
2019-05-05T01:36:12.165Z,80.27
2019-05-05T01:37:12.142Z,80.27
2019-05-05T01:38:14.171Z,79.55
2019-05-05T01:39:12.133Z,80.06
2019-05-05T01:40:14.090Z,80.27
2019-05-05T01:41:12.099Z,80.21
2019-05-05T01:42:14.200Z,80.21
2019-05-05T01:43:12.079Z,80.10
2019-05-05T01:44:12.100Z,80.52
2019-05-05T01:45:12.059Z,80.52
2019-05-05T01:46:14.188Z,80.52
2019-05-05T01:47:12.045Z,80.21
2019-05-05T01:48:14.115Z,80.21
2019-05-05T01:49:12.023Z,80.24
2019-05-05T01:50:18.453Z,80.24
2019-05-05T01:51:14.355Z,81.07
2019-05-05T01:52:11.994Z,80.87
2019-05-05T01:53:11.967Z,81.18
2019-05-05T01:54:11.981Z,81.24
2019-05-05T01:55:11.943Z,80.87
2019-05-05T01:56:11.933Z,81.38
2019-05-05T01:57:11.923Z,80.87
2019-05-05T01:58:11.930Z,80.62
2019-05-05T01:59:11.925Z,80.87
2019-05-05T02:00:11.892Z,81.45
2019-05-05T02:01:11.884Z,81.59
2019-05-05T02:02:11.874Z,80.97
2019-05-05T02:03:11.865Z,81.49
2019-05-05T02:04:11.868Z,81.28
2019-05-05T02:05:11.836Z,81.38
2019-05-05T02:06:11.834Z,81.38
2019-05-05T02:07:11.839Z,81.38
2019-05-05T02:08:11.809Z,81.38
2019-05-05T02:09:11.792Z,81.80
2019-05-05T02:10:11.805Z,81.90
2019-05-05T02:11:11.775Z,81.94
2019-05-05T02:12:11.760Z,81.73
2019-05-05T02:13:11.747Z,81.52
2019-05-05T02:14:11.749Z,81.52
2019-05-05T02:15:11.781Z,81.52
2019-05-05T02:16:11.768Z,81.52
2019-05-05T02:17:11.705Z,81.84
2019-05-05T02:18:11.698Z,81.94
2019-05-05T02:19:11.682Z,82.46
2019-05-05T02:20:11.690Z,82.15
2019-05-05T02:21:11.672Z,82.08
2019-05-05T02:22:11.669Z,81.77
2019-05-05T02:23:11.654Z,81.98
2019-05-05T02:24:11.632Z,82.29
2019-05-05T02:25:11.660Z,82.18
2019-05-05T02:26:11.625Z,82.50
2019-05-05T02:27:11.600Z,81.98
2019-05-05T02:28:11.586Z,82.70
2019-05-05T02:29:11.575Z,82.81
2019-05-05T02:30:11.590Z,82.50
2019-05-05T02:31:11.558Z,82.64
2019-05-05T02:32:11.572Z,82.95
2019-05-05T02:33:11.550Z,82.84
2019-05-05T02:34:11.533Z,82.53
2019-05-05T02:35:11.537Z,82.05
2019-05-05T02:36:11.499Z,82.32
2019-05-05T02:37:11.486Z,82.46
2019-05-05T02:38:11.556Z,82.68
2019-05-05T02:39:11.462Z,82.57
2019-05-05T02:40:11.932Z,81.95
2019-05-05T02:41:11.450Z,82.26
2019-05-05T02:42:14.462Z,82.26
2019-05-05T02:43:11.424Z,81.95
2019-05-05T02:44:11.410Z,81.53
2019-05-05T02:45:11.430Z,82.40
2019-05-05T02:46:14.169Z,83.23
2019-05-05T02:47:11.394Z,83.34
2019-05-05T02:48:14.892Z,83.34
2019-05-05T02:49:11.356Z,83.86
2019-05-05T02:50:11.371Z,83.54
2019-05-05T02:51:11.330Z,83.13
2019-05-05T02:52:11.325Z,83.37
2019-05-05T02:53:11.337Z,83.69
2019-05-05T02:54:13.577Z,83.69
2019-05-05T02:55:11.312Z,83.80
2019-05-05T02:56:11.307Z,84.00
2019-05-05T02:57:13.387Z,84.42
2019-05-05T02:58:11.253Z,83.58
2019-05-05T02:59:11.249Z,83.37
2019-05-05T03:00:13.405Z,84.63
2019-05-05T03:01:11.265Z,84.11
2019-05-05T03:02:11.269Z,84.66
2019-05-05T03:03:13.384Z,85.04
2019-05-05T03:04:11.193Z,84.45
2019-05-05T03:05:11.198Z,84.73
2019-05-05T03:06:11.211Z,84.21
2019-05-05T03:07:11.165Z,84.63
2019-05-05T03:08:11.148Z,84.98
2019-05-05T03:09:11.137Z,85.29
2019-05-05T03:10:11.131Z,85.29
2019-05-05T03:11:11.143Z,85.14
2019-05-05T03:12:11.281Z,84.77
2019-05-05T03:13:11.095Z,84.77
2019-05-05T03:14:11.082Z,85.19
2019-05-05T03:15:11.072Z,85.50
2019-05-05T03:16:11.082Z,84.77
2019-05-05T03:17:11.067Z,84.77
2019-05-05T03:18:11.051Z,86.33
2019-05-05T03:19:11.024Z,85.46
2019-05-05T03:20:11.015Z,84.87
2019-05-05T03:21:11.010Z,84.45
2019-05-05T03:22:11.031Z,85.39
2019-05-05T03:23:10.979Z,85.08
2019-05-05T03:24:10.974Z,84.77
2019-05-05T03:25:10.964Z,85.19
2019-05-05T03:26:10.978Z,85.08
2019-05-05T03:27:10.954Z,85.19
2019-05-05T03:28:10.940Z,85.19
2019-05-05T03:29:10.937Z,84.91
2019-05-05T03:30:10.931Z,84.87
2019-05-05T03:31:10.899Z,85.29
2019-05-05T03:32:11.802Z,85.12
2019-05-05T03:33:10.879Z,84.87
2019-05-05T03:34:10.875Z,85.53
2019-05-05T03:35:10.855Z,84.81
2019-05-05T03:36:10.904Z,85.53
2019-05-05T03:37:10.861Z,85.53
2019-05-05T03:38:10.830Z,85.43
2019-05-05T03:39:10.821Z,85.33
2019-05-05T03:40:10.834Z,85.26
2019-05-05T03:41:10.790Z,85.26
2019-05-05T03:42:10.809Z,84.84
2019-05-05T03:43:10.801Z,84.91
2019-05-05T03:44:10.750Z,84.95
2019-05-05T03:45:10.747Z,84.95
2019-05-05T03:46:10.729Z,84.22
2019-05-05T03:47:10.744Z,84.95
2019-05-05T03:48:10.731Z,84.99
2019-05-05T03:49:10.698Z,85.16
2019-05-05T03:50:10.687Z,85.16
2019-05-05T03:51:18.793Z,85.41
2019-05-05T03:52:13.394Z,85.51
2019-05-05T03:53:10.655Z,85.30
2019-05-05T03:54:10.668Z,85.20
2019-05-05T03:55:10.664Z,85.41
2019-05-05T03:56:10.630Z,86.03
2019-05-05T03:57:10.626Z,85.93
2019-05-05T03:58:10.627Z,86.45
2019-05-05T03:59:10.608Z,86.35
2019-05-05T04:00:10.577Z,86.97
2019-05-05T04:01:10.569Z,86.66
2019-05-05T04:02:10.585Z,85.41
2019-05-05T04:03:10.546Z,85.20
2019-05-05T04:04:10.556Z,85.51
2019-05-05T04:05:10.545Z,84.88
2019-05-05T04:06:10.526Z,85.41
2019-05-05T04:07:10.508Z,85.41
2019-05-05T04:08:10.511Z,85.41
2019-05-05T04:09:10.486Z,85.97
2019-05-05T04:10:10.479Z,86.69
2019-05-05T04:11:10.473Z,85.93
2019-05-05T04:12:10.464Z,85.51
2019-05-05T04:13:10.457Z,86.28
2019-05-05T04:14:10.442Z,86.59
2019-05-05T04:15:10.423Z,86.87
2019-05-05T04:16:10.407Z,86.59
2019-05-05T04:17:10.413Z,86.07
2019-05-05T04:18:10.421Z,85.13
2019-05-05T04:19:10.381Z,84.99
2019-05-05T04:20:10.370Z,85.24
2019-05-05T04:21:10.370Z,85.34
2019-05-05T04:22:10.346Z,85.65
2019-05-05T04:23:10.363Z,85.44
2019-05-05T04:24:10.318Z,85.24
2019-05-05T04:25:10.305Z,85.86
2019-05-05T04:26:10.299Z,85.86
2019-05-05T04:27:10.300Z,86.59
2019-05-05T04:28:10.308Z,86.28
2019-05-05T04:29:10.294Z,86.49
2019-05-05T04:30:10.260Z,86.59
2019-05-05T04:31:10.243Z,87.01
2019-05-05T04:32:10.241Z,86.18
2019-05-05T04:33:10.248Z,86.07
2019-05-05T04:34:10.219Z,87.01
2019-05-05T04:35:10.209Z,87.12
2019-05-05T04:36:10.188Z,87.01
2019-05-05T04:37:10.176Z,86.69
2019-05-05T04:38:10.193Z,86.91
2019-05-05T04:39:10.179Z,87.74
2019-05-05T04:40:10.165Z,87.12
2019-05-05T04:41:10.160Z,86.91
2019-05-05T04:42:10.124Z,87.01
2019-05-05T04:43:10.121Z,87.01
2019-05-05T04:44:10.129Z,86.91
2019-05-05T04:45:10.128Z,87.01
2019-05-05T04:46:10.089Z,86.38
2019-05-05T04:47:10.074Z,86.18
2019-05-05T04:48:10.077Z,86.38
2019-05-05T04:49:10.070Z,86.18
2019-05-05T04:50:10.037Z,87.01
2019-05-05T04:51:10.056Z,86.91
2019-05-05T04:52:10.023Z,86.87
2019-05-05T04:53:10.009Z,86.97
2019-05-05T04:54:10.035Z,86.97
2019-05-05T04:55:09.987Z,87.49
2019-05-05T04:56:09.980Z,87.01
2019-05-05T04:57:09.981Z,87.22
2019-05-05T04:58:09.967Z,87.28
2019-05-05T04:59:09.965Z,87.28
2019-05-05T05:00:09.950Z,87.39
2019-05-05T05:01:09.931Z,87.07
2019-05-05T05:02:09.912Z,87.07
2019-05-05T05:03:09.899Z,86.97
2019-05-05T05:04:09.934Z,87.39
2019-05-05T05:05:09.886Z,86.93
2019-05-05T05:06:09.874Z,87.04
2019-05-05T05:07:09.860Z,87.14
2019-05-05T05:08:09.858Z,87.87
2019-05-05T05:09:09.872Z,87.66
2019-05-05T05:10:09.842Z,87.73
2019-05-05T05:11:09.828Z,87.73
2019-05-05T05:12:09.800Z,87.52
2019-05-05T05:13:09.804Z,87.62
2019-05-05T05:14:09.786Z,87.41
2019-05-05T05:15:09.791Z,87.79
2019-05-05T05:16:09.762Z,88.62
2019-05-05T05:17:09.758Z,88.73
2019-05-05T05:18:09.736Z,88.73
2019-05-05T05:19:09.759Z,88.10
2019-05-05T05:20:09.726Z,87.68
2019-05-05T05:21:09.704Z,87.75
2019-05-05T05:22:09.696Z,87.43
2019-05-05T05:23:09.687Z,87.19
2019-05-05T05:24:09.688Z,87.33
2019-05-05T05:25:09.693Z,86.71
2019-05-05T05:26:09.669Z,86.57
2019-05-05T05:27:09.639Z,87.08
2019-05-05T05:28:09.630Z,86.67
2019-05-05T05:29:09.614Z,87.08
2019-05-05T05:30:09.628Z,86.88
2019-05-05T05:31:09.616Z,87.46
2019-05-05T05:32:09.583Z,86.73
2019-05-05T05:33:09.593Z,87.04
2019-05-05T05:34:09.581Z,86.73
2019-05-05T05:35:09.578Z,86.80
2019-05-05T05:36:09.545Z,86.11
2019-05-05T05:37:09.531Z,86.07
2019-05-05T05:38:09.522Z,85.44
2019-05-05T05:39:09.518Z,84.61
2019-05-05T05:40:09.543Z,84.41
2019-05-05T05:41:09.486Z,84.78
2019-05-05T05:42:09.477Z,84.16
2019-05-05T05:43:09.464Z,83.33
2019-05-05T05:44:09.485Z,83.64
2019-05-05T05:45:09.446Z,83.74
2019-05-05T05:46:09.449Z,84.33
2019-05-05T05:47:09.420Z,84.74
2019-05-05T05:48:09.440Z,85.33
2019-05-05T05:49:09.415Z,84.74
2019-05-05T05:50:09.385Z,84.29
2019-05-05T05:51:09.393Z,83.36
2019-05-05T05:52:15.713Z,84.15
2019-05-05T05:53:10.363Z,84.36
2019-05-05T05:54:09.364Z,84.25
2019-05-05T05:55:09.335Z,83.17
2019-05-05T05:56:09.340Z,82.97
2019-05-05T05:57:09.309Z,82.76
2019-05-05T05:58:09.306Z,82.41
2019-05-05T05:59:09.316Z,82.41
2019-05-05T06:00:09.311Z,82.58
2019-05-05T06:01:09.294Z,82.48
2019-05-05T06:02:12.671Z,82.27
2019-05-05T06:03:10.245Z,81.92
2019-05-05T06:04:09.232Z,81.82
2019-05-05T06:05:09.228Z,81.40
2019-05-05T06:06:09.227Z,80.43
2019-05-05T06:07:09.220Z,79.30
2019-05-05T06:08:09.190Z,78.99
2019-05-05T06:09:09.189Z,79.47
2019-05-05T06:10:21.346Z,79.47
2019-05-05T06:11:10.181Z,79.16
2019-05-05T06:12:09.155Z,78.43
2019-05-05T06:13:09.154Z,78.91
2019-05-05T06:14:09.122Z,77.47
2019-05-05T06:15:09.134Z,76.95
2019-05-05T06:16:09.123Z,76.70
2019-05-05T06:17:09.105Z,77.43
2019-05-05T06:18:09.089Z,77.01
2019-05-05T06:19:10.387Z,76.87
2019-05-05T06:20:09.066Z,76.67
2019-05-05T06:21:09.044Z,76.36
2019-05-05T06:22:09.054Z,74.88
2019-05-05T06:23:09.034Z,74.98
2019-05-05T06:24:09.029Z,74.98
2019-05-05T06:25:09.031Z,73.85
2019-05-05T06:26:08.998Z,73.95
2019-05-05T06:27:09.002Z,73.85
2019-05-05T06:28:08.968Z,73.71
2019-05-05T06:29:08.957Z,73.81
2019-05-05T06:30:08.973Z,74.12
2019-05-05T06:31:08.969Z,72.64
2019-05-05T06:32:08.971Z,73.26
2019-05-05T06:33:08.924Z,72.02
2019-05-05T06:34:08.904Z,73.77
2019-05-05T06:35:08.905Z,74.05
2019-05-05T06:36:08.900Z,72.40
2019-05-05T06:37:08.911Z,73.22
2019-05-05T06:38:08.859Z,72.30
2019-05-05T06:39:08.844Z,71.58
2019-05-05T06:40:08.840Z,70.41
2019-05-05T06:41:08.840Z,69.89
2019-05-05T06:42:08.849Z,70.82
2019-05-05T06:43:08.831Z,68.24
2019-05-05T06:44:08.818Z,69.35
2019-05-05T06:45:08.795Z,71.20
2019-05-05T06:46:08.789Z,70.07
2019-05-05T06:47:08.777Z,70.68
2019-05-05T06:48:08.756Z,69.11
2019-05-05T06:49:08.738Z,68.42
2019-05-05T06:50:08.732Z,68.39
2019-05-05T06:51:08.721Z,67.57
2019-05-05T06:52:08.745Z,66.74
2019-05-05T06:53:08.707Z,67.33
2019-05-05T06:54:08.708Z,68.66
2019-05-05T06:55:08.668Z,68.63
2019-05-05T06:56:08.687Z,69.59
2019-05-05T06:57:08.649Z,67.91
2019-05-05T06:58:08.661Z,66.37
2019-05-05T06:59:08.635Z,65.11
2019-05-05T07:00:08.620Z,68.12
2019-05-05T07:01:08.612Z,68.08
2019-05-05T07:02:08.592Z,66.85
2019-05-05T07:03:08.611Z,65.59
2019-05-05T07:04:08.575Z,66.41
2019-05-05T07:05:08.581Z,65.59
2019-05-05T07:06:08.554Z,66.17
2019-05-05T07:07:08.555Z,64.22
2019-05-05T07:08:08.556Z,63.71
2019-05-05T07:09:08.558Z,62.14
2019-05-05T07:10:08.506Z,61.32
2019-05-05T07:11:08.520Z,62.34
2019-05-05T07:12:08.503Z,63.78
2019-05-05T07:13:08.494Z,62.65
2019-05-05T07:14:08.479Z,62.34
2019-05-05T07:15:08.482Z,61.90
2019-05-05T07:16:08.465Z,62.11
2019-05-05T07:17:08.429Z,62.31
2019-05-05T07:18:08.447Z,62.41
2019-05-05T07:19:08.413Z,62.11
2019-05-05T07:20:08.397Z,60.75
2019-05-05T07:21:08.386Z,60.03
2019-05-05T07:22:08.380Z,59.64
2019-05-05T07:23:08.389Z,60.03
2019-05-05T07:24:08.366Z,59.20
2019-05-05T07:25:08.348Z,60.03
2019-05-05T07:26:08.340Z,60.10
2019-05-05T07:27:08.319Z,60.00
2019-05-05T07:28:08.325Z,59.48
2019-05-05T07:29:08.302Z,57.84
2019-05-05T07:30:08.285Z,57.75
2019-05-05T07:31:08.296Z,59.59
2019-05-05T07:32:08.264Z,58.97
2019-05-05T07:33:08.294Z,57.54
2019-05-05T07:34:08.243Z,57.75
2019-05-05T07:35:08.252Z,58.36
2019-05-05T07:36:08.219Z,57.43
2019-05-05T07:37:08.240Z,58.84
2019-05-05T07:38:08.222Z,59.15
2019-05-05T07:39:08.223Z,57.10
2019-05-05T07:40:08.183Z,57.31
2019-05-05T07:41:08.189Z,57.07
2019-05-05T07:42:08.158Z,55.54
2019-05-05T07:43:08.164Z,52.87
2019-05-05T07:44:08.153Z,51.10
2019-05-05T07:45:19.398Z,51.21
2019-05-05T07:46:09.118Z,52.44
2019-05-05T07:47:08.095Z,52.62
2019-05-05T07:48:08.092Z,49.04
2019-05-05T07:49:08.098Z,50.47
2019-05-05T07:50:14.490Z,51.70
2019-05-05T07:51:09.079Z,48.50
2019-05-05T07:52:08.170Z,49.83
2019-05-05T07:53:14.687Z,49.42
2019-05-05T07:54:09.049Z,49.42
2019-05-05T07:55:08.026Z,48.58
2019-05-05T07:56:08.002Z,50.73
2019-05-05T07:57:07.991Z,49.71
2019-05-05T07:58:07.982Z,49.27
2019-05-05T07:59:07.990Z,48.43
2019-05-05T08:00:07.956Z,49.07
2019-05-05T08:01:07.955Z,48.86
2019-05-05T08:02:07.948Z,47.41
2019-05-05T08:03:07.931Z,48.84
2019-05-05T08:04:07.935Z,47.92
2019-05-05T08:05:07.919Z,46.70
2019-05-05T08:06:07.906Z,46.26
2019-05-05T08:07:07.883Z,47.39
2019-05-05T08:08:07.886Z,44.43
2019-05-05T08:09:07.908Z,45.65
2019-05-05T08:10:07.890Z,44.92
2019-05-05T08:11:07.885Z,47.16
2019-05-05T08:12:07.853Z,47.39
2019-05-05T08:13:07.863Z,44.81
2019-05-05T08:14:07.900Z,45.73
2019-05-05T08:15:07.816Z,45.94
2019-05-05T08:16:07.808Z,44.53
2019-05-05T08:17:07.872Z,46.16
2019-05-05T08:18:07.779Z,46.26
2019-05-05T08:19:07.818Z,46.37
2019-05-05T08:20:07.900Z,45.55
2019-05-05T08:21:07.741Z,48.21
2019-05-05T08:22:07.855Z,46.16
2019-05-05T08:23:08.317Z,48.31
2019-05-05T08:24:07.721Z,46.37
2019-05-05T08:25:07.723Z,45.86
2019-05-05T08:26:07.674Z,46.19
2019-05-05T08:27:07.696Z,46.70
2019-05-05T08:28:07.652Z,48.33
2019-05-05T08:29:07.651Z,47.61
2019-05-05T08:30:07.674Z,48.33
2019-05-05T08:31:07.619Z,47.92
2019-05-05T08:32:07.618Z,45.98
2019-05-05T08:33:07.617Z,45.26
2019-05-05T08:34:07.587Z,46.29
2019-05-05T08:35:07.649Z,48.43
2019-05-05T08:36:07.576Z,46.90
2019-05-05T08:37:07.569Z,46.08
2019-05-05T08:38:07.541Z,46.59
2019-05-05T08:39:07.546Z,48.21
2019-05-05T08:40:07.544Z,47.19
2019-05-05T08:41:07.520Z,50.33
2019-05-05T08:42:07.541Z,48.08
2019-05-05T08:43:07.540Z,48.06
2019-05-05T08:44:07.547Z,46.94
2019-05-05T08:45:07.552Z,47.55
2019-05-05T08:46:07.482Z,48.24
2019-05-05T08:47:07.489Z,48.55
2019-05-05T08:48:07.430Z,48.03
2019-05-05T08:49:07.420Z,48.11
2019-05-05T08:50:07.423Z,47.40
2019-05-05T08:51:07.399Z,46.38
2019-05-05T08:52:07.384Z,45.26
2019-05-05T08:53:08.582Z,45.47
2019-05-05T08:54:07.379Z,46.48
2019-05-05T08:55:07.386Z,45.77
2019-05-05T08:56:07.348Z,45.26
2019-05-05T08:57:07.344Z,48.03
2019-05-05T08:58:07.319Z,47.83
2019-05-05T08:59:07.328Z,48.44
2019-05-05T09:00:07.327Z,46.20
2019-05-05T09:01:07.288Z,48.11
2019-05-05T09:02:07.270Z,48.52
2019-05-05T09:03:07.268Z,48.71
2019-05-05T09:04:07.260Z,49.62
2019-05-05T09:05:07.260Z,47.99
2019-05-05T09:06:07.224Z,46.24
2019-05-05T09:07:07.213Z,47.05
2019-05-05T09:08:07.214Z,46.03
2019-05-05T09:09:07.195Z,45.32
2019-05-05T09:10:07.207Z,44.71
2019-05-05T09:11:07.189Z,45.53
2019-05-05T09:12:07.167Z,43.41
2019-05-05T09:13:07.150Z,42.90
2019-05-05T09:14:07.144Z,44.34
2019-05-05T09:15:07.139Z,44.06
2019-05-05T09:16:07.145Z,45.18
2019-05-05T09:17:07.112Z,46.83
2019-05-05T09:18:07.095Z,48.77
2019-05-05T09:19:07.083Z,49.08
2019-05-05T09:20:07.069Z,49.62
2019-05-05T09:21:07.082Z,50.23
2019-05-05T09:22:08.823Z,48.82
2019-05-05T09:23:07.047Z,50.35
2019-05-05T09:24:07.022Z,48.72
2019-05-05T09:25:07.013Z,49.74
2019-05-05T09:26:07.036Z,49.96
2019-05-05T09:27:07.012Z,50.99
2019-05-05T09:28:06.989Z,51.48
2019-05-05T09:29:06.969Z,50.86
2019-05-05T09:30:06.958Z,51.07
2019-05-05T09:31:06.969Z,51.37
2019-05-05T09:32:06.944Z,50.35
2019-05-05T09:33:06.952Z,50.35
2019-05-05T09:34:06.925Z,48.92
2019-05-05T09:35:06.936Z,51.17
2019-05-05T09:36:06.938Z,51.07
2019-05-05T09:37:06.884Z,50.25
2019-05-05T09:38:06.871Z,50.86
2019-05-05T09:39:06.858Z,51.37
2019-05-05T09:40:06.845Z,50.74
2019-05-05T09:41:06.870Z,46.75
2019-05-05T09:42:06.825Z,47.06
2019-05-05T09:43:06.819Z,48.77
2019-05-05T09:44:06.813Z,48.77
2019-05-05T09:45:06.797Z,46.43
2019-05-05T09:46:06.787Z,44.90
2019-05-05T09:47:06.807Z,45.72
2019-05-05T09:48:06.799Z,44.59
2019-05-05T09:49:06.749Z,45.00
2019-05-05T09:50:06.777Z,48.08
2019-05-05T09:51:06.738Z,49.02
2019-05-05T09:52:06.738Z,48.08
2019-05-05T09:53:06.703Z,51.43
2019-05-05T09:54:14.013Z,50.31
2019-05-05T09:55:07.683Z,49.77
2019-05-05T09:56:06.666Z,49.98
2019-05-05T09:57:06.683Z,48.44
2019-05-05T09:58:06.646Z,48.96
2019-05-05T09:59:06.642Z,48.14
2019-05-05T10:00:06.630Z,47.22
2019-05-05T10:01:06.613Z,45.92
2019-05-05T10:02:06.644Z,46.92
2019-05-05T10:03:06.589Z,46.53
2019-05-05T10:04:06.589Z,46.43
2019-05-05T10:05:06.570Z,45.92
2019-05-05T10:06:06.576Z,46.33
2019-05-05T10:07:06.585Z,45.63
2019-05-05T10:08:06.533Z,46.55
2019-05-05T10:09:06.522Z,45.43
2019-05-05T10:10:06.514Z,46.45
2019-05-05T10:11:06.509Z,44.22
2019-05-05T10:12:06.522Z,45.14
2019-05-05T10:13:06.491Z,43.82
2019-05-05T10:14:06.478Z,44.14
2019-05-05T10:15:07.505Z,46.29
2019-05-05T10:16:06.446Z,44.76
2019-05-05T10:17:06.444Z,46.90
2019-05-05T10:18:06.446Z,44.06
2019-05-05T10:19:06.425Z,46.82
2019-05-05T10:20:06.414Z,48.25
2019-05-05T10:21:06.392Z,48.25
2019-05-05T10:22:06.379Z,47.97
2019-05-05T10:23:06.393Z,48.79
2019-05-05T10:24:06.374Z,48.58
2019-05-05T10:25:06.355Z,48.79
2019-05-05T10:26:06.364Z,49.07
2019-05-05T10:27:06.323Z,49.89
2019-05-05T10:28:06.350Z,50.50
2019-05-05T10:29:06.310Z,51.09
2019-05-05T10:30:06.325Z,51.07
2019-05-05T10:31:06.297Z,50.23
2019-05-05T10:32:06.276Z,50.23
2019-05-05T10:33:06.304Z,47.37
2019-05-05T10:34:06.256Z,47.86
2019-05-05T10:35:06.256Z,47.04
2019-05-05T10:36:06.235Z,46.73
2019-05-05T10:37:06.216Z,44.38
2019-05-05T10:38:06.246Z,45.72
2019-05-05T10:39:06.197Z,46.83
2019-05-05T10:40:06.190Z,46.53
2019-05-05T10:41:06.202Z,44.61
2019-05-05T10:42:06.187Z,45.53
2019-05-05T10:43:06.190Z,46.55
2019-05-05T10:44:06.157Z,45.02
2019-05-05T10:45:06.132Z,46.16
2019-05-05T10:46:06.117Z,47.19
2019-05-05T10:47:06.124Z,47.60
2019-05-05T10:48:06.141Z,46.37
2019-05-05T10:49:06.112Z,47.00
2019-05-05T10:50:06.073Z,48.84
2019-05-05T10:51:06.073Z,48.97
2019-05-05T10:52:06.052Z,49.66
2019-05-05T10:53:06.060Z,48.66
2019-05-05T10:54:06.059Z,48.76
2019-05-05T10:55:06.020Z,48.56
2019-05-05T10:56:06.016Z,48.15
2019-05-05T10:57:06.050Z,48.05
2019-05-05T10:58:05.989Z,49.07
2019-05-05T10:59:05.990Z,48.17
2019-05-05T11:00:12.213Z,49.17
2019-05-05T11:01:06.957Z,50.12
2019-05-05T11:02:06.050Z,50.63
2019-05-05T11:03:05.929Z,49.91
2019-05-05T11:04:05.937Z,48.99
2019-05-05T11:05:05.927Z,50.42
2019-05-05T11:06:05.907Z,49.81
2019-05-05T11:07:05.890Z,49.32
2019-05-05T11:08:05.876Z,50.93
2019-05-05T11:09:05.889Z,50.24
2019-05-05T11:10:05.854Z,50.01
2019-05-05T11:11:05.854Z,50.22
2019-05-05T11:12:05.836Z,49.89
2019-05-05T11:13:05.833Z,50.89
2019-05-05T11:14:05.839Z,50.71
2019-05-05T11:15:05.812Z,50.81
2019-05-05T11:16:05.796Z,50.27
2019-05-05T11:17:05.779Z,48.54
2019-05-05T11:18:05.775Z,47.82
2019-05-05T11:19:05.795Z,48.23
2019-05-05T11:20:05.766Z,48.02
2019-05-05T11:21:05.742Z,47.92
2019-05-05T11:22:05.723Z,49.05
2019-05-05T11:23:05.720Z,48.54
2019-05-05T11:24:05.706Z,49.66
2019-05-05T11:25:05.714Z,49.05
2019-05-05T11:26:05.699Z,49.05
2019-05-05T11:27:05.667Z,48.35
2019-05-05T11:28:05.671Z,49.05
2019-05-05T11:29:05.648Z,48.13
2019-05-05T11:30:05.669Z,49.99
2019-05-05T11:31:05.643Z,49.17
2019-05-05T11:32:05.615Z,49.17
2019-05-05T11:33:05.608Z,48.46
2019-05-05T11:34:05.591Z,48.97
2019-05-05T11:35:05.671Z,49.79
2019-05-05T11:36:05.577Z,48.54
2019-05-05T11:37:05.565Z,47.85
2019-05-05T11:38:05.577Z,48.64
2019-05-05T11:39:05.576Z,49.89
2019-05-05T11:40:05.544Z,49.58
2019-05-05T11:41:05.519Z,49.07
2019-05-05T11:42:05.520Z,48.15
2019-05-05T11:43:05.513Z,48.35
2019-05-05T11:44:05.486Z,48.86
2019-05-05T11:45:05.482Z,50.20
2019-05-05T11:46:05.493Z,49.89
2019-05-05T11:47:05.454Z,48.56
2019-05-05T11:48:05.445Z,48.99
2019-05-05T11:49:05.434Z,48.17
2019-05-05T11:50:05.455Z,48.38
2019-05-05T11:51:05.457Z,49.50
2019-05-05T11:52:05.411Z,49.71
2019-05-05T11:53:05.385Z,50.45
2019-05-05T11:54:05.382Z,48.89
2019-05-05T11:55:11.542Z,50.12
2019-05-05T11:56:06.388Z,47.97
2019-05-05T11:57:05.345Z,49.19
2019-05-05T11:58:05.344Z,47.99
2019-05-05T11:59:05.361Z,48.60
2019-05-05T12:00:05.379Z,49.83
2019-05-05T12:01:05.326Z,48.19
2019-05-05T12:02:05.305Z,46.86
2019-05-05T12:03:05.289Z,49.11
2019-05-05T12:04:05.279Z,49.22
2019-05-05T12:05:05.257Z,48.81
2019-05-05T12:06:05.281Z,49.42
2019-05-05T12:07:05.264Z,48.81
2019-05-05T12:08:05.228Z,49.83
2019-05-05T12:09:05.222Z,50.55
2019-05-05T12:10:05.237Z,49.83
2019-05-05T12:11:05.212Z,49.83
2019-05-05T12:12:05.194Z,50.85
2019-05-05T12:13:05.168Z,49.93
2019-05-05T12:14:05.159Z,48.99
2019-05-05T12:15:05.149Z,48.48
2019-05-05T12:16:05.141Z,50.83
2019-05-05T12:17:05.152Z,48.79
2019-05-05T12:18:05.122Z,48.79
2019-05-05T12:19:05.126Z,48.86
2019-05-05T12:20:05.099Z,48.35
2019-05-05T12:21:05.467Z,49.76
2019-05-05T12:22:05.106Z,49.76
2019-05-05T12:23:05.087Z,50.25
2019-05-05T12:24:05.054Z,48.92
2019-05-05T12:25:05.068Z,47.90
2019-05-05T12:26:05.054Z,48.39
2019-05-05T12:27:05.055Z,48.90
2019-05-05T12:28:05.032Z,46.14
2019-05-05T12:29:04.997Z,47.14
2019-05-05T12:30:05.002Z,47.24
2019-05-05T12:31:04.987Z,46.83
2019-05-05T12:32:04.969Z,44.38
2019-05-05T12:33:04.993Z,45.72
2019-05-05T12:34:04.943Z,42.76
2019-05-05T12:35:04.930Z,42.35
2019-05-05T12:36:04.926Z,43.47
2019-05-05T12:37:05.372Z,43.67
2019-05-05T12:38:04.919Z,44.79
2019-05-05T12:39:04.889Z,44.18
2019-05-05T12:40:04.896Z,46.33
2019-05-05T12:41:04.879Z,47.04
2019-05-05T12:42:05.117Z,46.53
2019-05-05T12:43:04.857Z,45.72
2019-05-05T12:44:04.846Z,46.66
2019-05-05T12:45:04.828Z,46.12
2019-05-05T12:46:04.804Z,45.00
2019-05-05T12:47:04.807Z,45.20
2019-05-05T12:48:04.805Z,45.00
2019-05-05T12:49:04.928Z,44.79
2019-05-05T12:50:04.774Z,45.61
2019-05-05T12:51:04.769Z,46.34
2019-05-05T12:52:04.778Z,46.63